This is the latest recevied weather packets stored in our database for station/object KD7KCN-5. If no packets are shown the sender has not sent any weather packets the latest 10 day(s).
| Time | Temp. | Humidity | Pressure | Rain* | Wind** | Luminosity | Snow |
|---|---|---|---|---|---|---|---|
| 1777314133 | 10.56° C | 49% | 1010.4 hPa | 0 mm | - | 1013 W/m² | - |
| 1777313533 | 9.44° C | 50% | 1010.3 hPa | 0 mm | - | 1013 W/m² | - |
| 1777312933 | 9.44° C | 49% | 1010.4 hPa | 0 mm | - | 995 W/m² | - |
| 1777312333 | 8.89° C | 55% | 1010.4 hPa | 0 mm | - | 265 W/m² | - |
| 1777311733 | 8.89° C | 53% | 1010.5 hPa | 0 mm | - | 241 W/m² | - |
| 1777311134 | 9.44° C | 53% | 1010.4 hPa | 0 mm | - | 984 W/m² | - |
| 1777310534 | 9.44° C | 54% | 1010.4 hPa | 0 mm | - | 979 W/m² | - |
| 1777309933 | 8.89° C | 53% | 1010.3 hPa | 0 mm | - | 197 W/m² | - |
| 1777309333 | 8.89° C | 53% | 1010.3 hPa | 0 mm | - | 237 W/m² | - |
| 1777308734 | 9.44° C | 53% | 1010.3 hPa | 0 mm | - | 909 W/m² | - |
| 1777308134 | 8.89° C | 56% | 1010.1 hPa | 0 mm | - | 838 W/m² | - |
| 1777307534 | 7.78° C | 58% | 1010.1 hPa | 0 mm | - | 139 W/m² | - |
| 1777306934 | 8.89° C | 55% | 1009.9 hPa | 0 mm | - | 123 W/m² | - |
| 1777306334 | 8.89° C | 57% | 1010 hPa | 0 mm | - | 707 W/m² | - |
| 1777305734 | 8.33° C | 57% | 1010.2 hPa | 0 mm | - | 135 W/m² | - |
| 1777305134 | 8.33° C | 57% | 1010.2 hPa | 0 mm | - | 640 W/m² | - |
| 1777304534 | 8.33° C | 57% | 1010.3 hPa | 0 mm | - | 615 W/m² | - |
| 1777303934 | 8.33° C | 62% | 1010.2 hPa | 0 mm | - | 568 W/m² | - |
| 1777303334 | 7.78° C | 61% | 1010.2 hPa | 0 mm | - | 522 W/m² | - |
| 1777302734 | 8.33° C | 61% | 1010 hPa | 0 mm | - | 480 W/m² | - |
| 1777302134 | 7.78° C | 62% | 1010.1 hPa | 0 mm | - | 450 W/m² | - |
| 1777301534 | 7.78° C | 60% | 1010.1 hPa | 0 mm | - | 413 W/m² | - |
| 1777300934 | 7.78° C | 60% | 1010.3 hPa | 0 mm | - | 376 W/m² | - |
| 1777300334 | 7.78° C | 60% | 1010.1 hPa | 0 mm | - | 339 W/m² | - |
| 1777299734 | 7.78° C | 63% | 1010.3 hPa | 0 mm | - | 304 W/m² | - |
* Rain latest hour (hover to see other rain measurements)
** Current wind speed in m/s (hover to see current wind gust speed)